PWSweather.com
Personal Weather Stations
Station Observations
KMACAMBR
Central Square, Cambridge, MA 02139

Central SquareCambridge, MA 02139

Lat: 42.36379, Lon: -71.107902

Elevation: 6

Station Type: Davis Vantage Pro2

http://weather.keneli.org

High Low Average
Temperature 32.9°F0.5°C 23.2°F-4.9°C 27.8°F-2.3°C
Dew Point 13.6°F-10.2°C -6.0°F-21.1°C 5.0°F-15.0°C
Winds 20.0 mph 32.2 kmh Calm Calm 6.0 mph SW9.7 kmh SW
Wind Gusts 24.0 mph38.6 kmh 4.0 mph6.4 kmh 15.0 mph24.1 kmh
Humidity 54% 19% 34%
Pressure 29.91 in1012.9 mb 29.58 in1001.7 mb -
Precipitation 0.02 in0.5 mm - -
Hour Temp Dew Point Humidity Winds Wind Gusts Pressure Precip Precip Rate Daily Precip Total
12:00 AM 28.1°F-2.2°C 13.6°F-10.2°C 54% 4.0 mph WSW6.4 kmh WSW 23.0 mph37.0 kmh 29.58 in1001.7 mb 0.00 in0.0 mm 0.00 in/hr0.0 mm/hr 0.02 in0.5 mm
12:05 AM 28.1°F-2.2°C 13.6°F-10.2°C 54% 5.0 mph SW8.0 kmh SW 18.0 mph29.0 kmh 29.58 in1001.7 mb 0.00 in0.0 mm 0.00 in/hr0.0 mm/hr 0.00 in0.0 mm
12:10 AM 28.1°F-2.2°C 13.6°F-10.2°C 54% 16.0 mph WSW25.7 kmh WSW 22.0 mph35.4 kmh 29.58 in1001.7 mb 0.00 in0.0 mm 0.00 in/hr0.0 mm/hr 0.00 in0.0 mm
12:15 AM 27.9°F-2.3°C 13.0°F-10.6°C 53% 2.0 mph WSW3.2 kmh WSW 23.0 mph37.0 kmh 29.58 in1001.7 mb 0.00 in0.0 mm 0.00 in/hr0.0 mm/hr 0.00 in0.0 mm
12:20 AM 27.9°F-2.3°C 13.0°F-10.6°C 53% 6.0 mph SW9.7 kmh SW 21.0 mph33.8 kmh 29.58 in1001.7 mb 0.00 in0.0 mm 0.00 in/hr0.0 mm/hr 0.00 in0.0 mm
12:25 AM 27.9°F-2.3°C 13.0°F-10.6°C 53% 5.0 mph SW8.0 kmh SW 15.0 mph24.1 kmh 29.58 in1001.7 mb 0.00 in0.0 mm 0.00 in/hr0.0 mm/hr 0.00 in0.0 mm
12:30 AM 27.9°F-2.3°C 13.0°F-10.6°C 53% 4.0 mph WSW6.4 kmh WSW 23.0 mph37.0 kmh 29.58 in1001.7 mb 0.00 in0.0 mm 0.00 in/hr0.0 mm/hr 0.00 in0.0 mm
12:35 AM 27.9°F-2.3°C 13.0°F-10.6°C 53% 9.0 mph W14.5 kmh W 17.0 mph27.4 kmh 29.58 in1001.7 mb 0.00 in0.0 mm 0.00 in/hr0.0 mm/hr 0.00 in0.0 mm
12:40 AM 27.9°F-2.3°C 12.5°F-10.8°C 52% 17.0 mph WSW27.4 kmh WSW 24.0 mph38.6 kmh 29.58 in1001.7 mb 0.00 in0.0 mm 0.00 in/hr0.0 mm/hr 0.00 in0.0 mm
12:45 AM 27.9°F-2.3°C 12.5°F-10.8°C 52% 11.0 mph W17.7 kmh W 24.0 mph38.6 kmh 29.58 in1001.7 mb 0.00 in0.0 mm 0.00 in/hr0.0 mm/hr 0.00 in0.0 mm
12:50 AM 27.9°F-2.3°C 12.5°F-10.8°C 52% 4.0 mph WSW6.4 kmh WSW 18.0 mph29.0 kmh 29.58 in1001.7 mb 0.00 in0.0 mm 0.00 in/hr0.0 mm/hr 0.00 in0.0 mm
12:55 AM 27.9°F-2.3°C 12.5°F-10.8°C 52% 6.0 mph WSW9.7 kmh WSW 19.0 mph30.6 kmh 29.58 in1001.7 mb 0.00 in0.0 mm 0.00 in/hr0.0 mm/hr 0.00 in0.0 mm
01:00 AM 27.9°F-2.3°C 12.5°F-10.8°C 52% 5.0 mph SW8.0 kmh SW 19.0 mph30.6 kmh 29.59 in1002.0 mb 0.00 in0.0 mm 0.00 in/hr0.0 mm/hr 0.00 in0.0 mm
01:05 AM 27.9°F-2.3°C 12.5°F-10.8°C 52% 7.0 mph WSW11.3 kmh WSW 14.0 mph22.5 kmh 29.59 in1002.0 mb 0.00 in0.0 mm 0.00 in/hr0.0 mm/hr 0.00 in0.0 mm
01:10 AM 27.9°F-2.3°C 12.1°F-11.1°C 51% 14.0 mph SW22.5 kmh SW 21.0 mph33.8 kmh 29.59 in1002.0 mb 0.00 in0.0 mm 0.00 in/hr0.0 mm/hr 0.00 in0.0 mm
01:15 AM 27.8°F-2.3°C 12.0°F-11.1°C 51% 13.0 mph SW20.9 kmh SW 17.0 mph27.4 kmh 29.60 in1002.4 mb 0.00 in0.0 mm 0.00 in/hr0.0 mm/hr 0.00 in0.0 mm
01:20 AM 27.8°F-2.3°C 12.0°F-11.1°C 51% 4.0 mph SW6.4 kmh SW 20.0 mph32.2 kmh 29.60 in1002.4 mb 0.00 in0.0 mm 0.00 in/hr0.0 mm/hr 0.00 in0.0 mm
01:25 AM 27.8°F-2.3°C 12.0°F-11.1°C 51% 4.0 mph SW6.4 kmh SW 17.0 mph27.4 kmh 29.60 in1002.4 mb 0.00 in0.0 mm 0.00 in/hr0.0 mm/hr 0.00 in0.0 mm
01:30 AM 27.8°F-2.3°C 12.4°F-10.9°C 52% 2.0 mph WSW3.2 kmh WSW 12.0 mph19.3 kmh 29.61 in1002.7 mb 0.00 in0.0 mm 0.00 in/hr0.0 mm/hr 0.00 in0.0 mm
01:35 AM 27.6°F-2.4°C 12.3°F-10.9°C 52% 9.0 mph SW14.5 kmh SW 21.0 mph33.8 kmh 29.61 in1002.7 mb 0.00 in0.0 mm 0.00 in/hr0.0 mm/hr 0.00 in0.0 mm
01:40 AM 27.6°F-2.4°C 11.8°F-11.2°C 51% 2.0 mph SW3.2 kmh SW 17.0 mph27.4 kmh 29.61 in1002.7 mb 0.00 in0.0 mm 0.00 in/hr0.0 mm/hr 0.00 in0.0 mm
01:45 AM 27.5°F-2.5°C 11.3°F-11.5°C 50% 6.0 mph WSW9.7 kmh WSW 20.0 mph32.2 kmh 29.62 in1003.0 mb 0.00 in0.0 mm 0.00 in/hr0.0 mm/hr 0.00 in0.0 mm
01:50 AM 27.5°F-2.5°C 10.8°F-11.8°C 49% 10.0 mph SW16.1 kmh SW 18.0 mph29.0 kmh 29.62 in1003.0 mb 0.00 in0.0 mm 0.00 in/hr0.0 mm/hr 0.00 in0.0 mm
01:55 AM 27.3°F-2.6°C 10.2°F-12.1°C 48% 18.0 mph WSW29.0 kmh WSW 19.0 mph30.6 kmh 29.62 in1003.0 mb 0.00 in0.0 mm 0.00 in/hr0.0 mm/hr 0.00 in0.0 mm
02:00 AM 27.3°F-2.6°C 10.2°F-12.1°C 48% 1.0 mph SSW1.6 kmh SSW 21.0 mph33.8 kmh 29.63 in1003.4 mb 0.00 in0.0 mm 0.00 in/hr0.0 mm/hr 0.00 in0.0 mm
02:05 AM 27.2°F-2.7°C 10.1°F-12.2°C 48% 4.0 mph SW6.4 kmh SW 20.0 mph32.2 kmh 29.63 in1003.4 mb 0.00 in0.0 mm 0.00 in/hr0.0 mm/hr 0.00 in0.0 mm
02:10 AM 27.2°F-2.7°C 10.1°F-12.2°C 48% 15.0 mph SSW24.1 kmh SSW 18.0 mph29.0 kmh 29.63 in1003.4 mb 0.00 in0.0 mm 0.00 in/hr0.0 mm/hr 0.00 in0.0 mm
02:15 AM 27.0°F-2.8°C 9.4°F-12.6°C 47% 17.0 mph WSW27.4 kmh WSW 24.0 mph38.6 kmh 29.63 in1003.4 mb 0.00 in0.0 mm 0.00 in/hr0.0 mm/hr 0.00 in0.0 mm
02:20 AM 27.0°F-2.8°C 9.0°F-12.8°C 46% 6.0 mph SW9.7 kmh SW 19.0 mph30.6 kmh 29.63 in1003.4 mb 0.00 in0.0 mm 0.00 in/hr0.0 mm/hr 0.00 in0.0 mm
02:25 AM 26.9°F-2.8°C 8.9°F-12.8°C 46% 7.0 mph SW11.3 kmh SW 20.0 mph32.2 kmh 29.63 in1003.4 mb 0.00 in0.0 mm 0.00 in/hr0.0 mm/hr 0.00 in0.0 mm
02:30 AM 26.7°F-2.9°C 9.2°F-12.7°C 47% 7.0 mph WSW11.3 kmh WSW 12.0 mph19.3 kmh 29.64 in1003.7 mb 0.00 in0.0 mm 0.00 in/hr0.0 mm/hr 0.00 in0.0 mm
02:35 AM 26.7°F-2.9°C 8.7°F-12.9°C 46% 7.0 mph WSW11.3 kmh WSW 19.0 mph30.6 kmh 29.64 in1003.7 mb 0.00 in0.0 mm 0.00 in/hr0.0 mm/hr 0.00 in0.0 mm
02:40 AM 26.6°F-3.0°C 8.6°F-13.0°C 46% 5.0 mph SW8.0 kmh SW 22.0 mph35.4 kmh 29.64 in1003.7 mb 0.00 in0.0 mm 0.00 in/hr0.0 mm/hr 0.00 in0.0 mm
02:45 AM 26.6°F-3.0°C 8.6°F-13.0°C 46% 5.0 mph SW8.0 kmh SW 18.0 mph29.0 kmh 29.64 in1003.7 mb 0.00 in0.0 mm 0.00 in/hr0.0 mm/hr 0.00 in0.0 mm
02:50 AM 26.4°F-3.1°C 7.9°F-13.4°C 45% 2.0 mph SW3.2 kmh SW 16.0 mph25.7 kmh 29.64 in1003.7 mb 0.00 in0.0 mm 0.00 in/hr0.0 mm/hr 0.00 in0.0 mm
02:55 AM 26.3°F-3.2°C 7.3°F-13.7°C 44% 4.0 mph WSW6.4 kmh WSW 22.0 mph35.4 kmh 29.64 in1003.7 mb 0.00 in0.0 mm 0.00 in/hr0.0 mm/hr 0.00 in0.0 mm
03:00 AM 26.1°F-3.3°C 6.6°F-14.1°C 43% 18.0 mph S29.0 kmh S 22.0 mph35.4 kmh 29.65 in1004.1 mb 0.00 in0.0 mm 0.00 in/hr0.0 mm/hr 0.00 in0.0 mm
03:05 AM 26.0°F-3.3°C 6.6°F-14.1°C 43% 3.0 mph WSW4.8 kmh WSW 19.0 mph30.6 kmh 29.65 in1004.1 mb 0.00 in0.0 mm 0.00 in/hr0.0 mm/hr 0.00 in0.0 mm
03:10 AM 26.0°F-3.3°C 6.0°F-14.4°C 42% 5.0 mph W8.0 kmh W 22.0 mph35.4 kmh 29.65 in1004.1 mb 0.00 in0.0 mm 0.00 in/hr0.0 mm/hr 0.00 in0.0 mm
03:15 AM 25.8°F-3.4°C 5.9°F-14.5°C 42% 9.0 mph WSW14.5 kmh WSW 21.0 mph33.8 kmh 29.66 in1004.4 mb 0.00 in0.0 mm 0.00 in/hr0.0 mm/hr 0.00 in0.0 mm
03:20 AM 25.8°F-3.4°C 5.9°F-14.5°C 42% 6.0 mph WSW9.7 kmh WSW 23.0 mph37.0 kmh 29.66 in1004.4 mb 0.00 in0.0 mm 0.00 in/hr0.0 mm/hr 0.00 in0.0 mm
03:25 AM 25.7°F-3.5°C 5.8°F-14.6°C 42% 4.0 mph WSW6.4 kmh WSW 15.0 mph24.1 kmh 29.66 in1004.4 mb 0.00 in0.0 mm 0.00 in/hr0.0 mm/hr 0.00 in0.0 mm
03:30 AM 25.7°F-3.5°C 5.8°F-14.6°C 42% 7.0 mph SW11.3 kmh SW 17.0 mph27.4 kmh 29.67 in1004.7 mb 0.00 in0.0 mm 0.00 in/hr0.0 mm/hr 0.00 in0.0 mm
03:35 AM 25.6°F-3.6°C 5.2°F-14.9°C 41% 6.0 mph SW9.7 kmh SW 20.0 mph32.2 kmh 29.67 in1004.7 mb 0.00 in0.0 mm 0.00 in/hr0.0 mm/hr 0.00 in0.0 mm
03:40 AM 25.6°F-3.6°C 5.2°F-14.9°C 41% 5.0 mph SSW8.0 kmh SSW 17.0 mph27.4 kmh 29.67 in1004.7 mb 0.00 in0.0 mm 0.00 in/hr0.0 mm/hr 0.00 in0.0 mm
03:45 AM 25.4°F-3.7°C 5.0°F-15.0°C 41% 4.0 mph W6.4 kmh W 13.0 mph20.9 kmh 29.68 in1005.1 mb 0.00 in0.0 mm 0.00 in/hr0.0 mm/hr 0.00 in0.0 mm
03:50 AM 25.4°F-3.7°C 5.0°F-15.0°C 41% 5.0 mph SSW8.0 kmh SSW 19.0 mph30.6 kmh 29.68 in1005.1 mb 0.00 in0.0 mm 0.00 in/hr0.0 mm/hr 0.00 in0.0 mm
03:55 AM 25.3°F-3.7°C 5.4°F-14.8°C 42% 14.0 mph SW22.5 kmh SW 17.0 mph27.4 kmh 29.68 in1005.1 mb 0.00 in0.0 mm 0.00 in/hr0.0 mm/hr 0.00 in0.0 mm
04:00 AM 25.3°F-3.7°C 5.4°F-14.8°C 42% 13.0 mph SW20.9 kmh SW 21.0 mph33.8 kmh 29.69 in1005.4 mb 0.00 in0.0 mm 0.00 in/hr0.0 mm/hr 0.00 in0.0 mm
04:05 AM 25.1°F-3.8°C 5.2°F-14.9°C 42% 1.0 mph SW1.6 kmh SW 17.0 mph27.4 kmh 29.69 in1005.4 mb 0.00 in0.0 mm 0.00 in/hr0.0 mm/hr 0.00 in0.0 mm
04:10 AM 25.1°F-3.8°C 4.7°F-15.2°C 41% 3.0 mph SW4.8 kmh SW 16.0 mph25.7 kmh 29.69 in1005.4 mb 0.00 in0.0 mm 0.00 in/hr0.0 mm/hr 0.00 in0.0 mm
04:15 AM 25.0°F-3.9°C 4.6°F-15.2°C 41% 3.0 mph W4.8 kmh W 15.0 mph24.1 kmh 29.69 in1005.4 mb 0.00 in0.0 mm 0.00 in/hr0.0 mm/hr 0.00 in0.0 mm
04:20 AM 24.8°F-4.0°C 4.4°F-15.3°C 41% 14.0 mph W22.5 kmh W 17.0 mph27.4 kmh 29.69 in1005.4 mb 0.00 in0.0 mm 0.00 in/hr0.0 mm/hr 0.00 in0.0 mm
04:25 AM 24.8°F-4.0°C 5.0°F-15.0°C 42% 6.0 mph WSW9.7 kmh WSW 14.0 mph22.5 kmh 29.69 in1005.4 mb 0.00 in0.0 mm 0.00 in/hr0.0 mm/hr 0.00 in0.0 mm
04:30 AM 24.8°F-4.0°C 5.0°F-15.0°C 42% 2.0 mph SW3.2 kmh SW 18.0 mph29.0 kmh 29.69 in1005.4 mb 0.00 in0.0 mm 0.00 in/hr0.0 mm/hr 0.00 in0.0 mm
04:35 AM 24.7°F-4.1°C 4.9°F-15.1°C 42% 10.0 mph W16.1 kmh W 10.0 mph16.1 kmh 29.69 in1005.4 mb 0.00 in0.0 mm 0.00 in/hr0.0 mm/hr 0.00 in0.0 mm
04:40 AM 24.5°F-4.2°C 4.2°F-15.4°C 41% 13.0 mph W20.9 kmh W 18.0 mph29.0 kmh 29.69 in1005.4 mb 0.00 in0.0 mm 0.00 in/hr0.0 mm/hr 0.00 in0.0 mm
04:45 AM 24.5°F-4.2°C 4.7°F-15.2°C 42% 7.0 mph SSW11.3 kmh SSW 18.0 mph29.0 kmh 29.70 in1005.8 mb 0.00 in0.0 mm 0.00 in/hr0.0 mm/hr 0.00 in0.0 mm
04:50 AM 24.5°F-4.2°C 4.2°F-15.4°C 41% 5.0 mph SW8.0 kmh SW 15.0 mph24.1 kmh 29.70 in1005.8 mb 0.00 in0.0 mm 0.00 in/hr0.0 mm/hr 0.00 in0.0 mm
04:55 AM 24.4°F-4.2°C 4.6°F-15.2°C 42% Calm Calm 12.0 mph19.3 kmh 29.70 in1005.8 mb 0.00 in0.0 mm 0.00 in/hr0.0 mm/hr 0.00 in0.0 mm
05:00 AM 24.4°F-4.2°C 4.6°F-15.2°C 42% 7.0 mph WSW11.3 kmh WSW 15.0 mph24.1 kmh 29.71 in1006.1 mb 0.00 in0.0 mm 0.00 in/hr0.0 mm/hr 0.00 in0.0 mm
05:05 AM 24.4°F-4.2°C 4.1°F-15.5°C 41% 6.0 mph SW9.7 kmh SW 18.0 mph29.0 kmh 29.71 in1006.1 mb 0.00 in0.0 mm 0.00 in/hr0.0 mm/hr 0.00 in0.0 mm
05:10 AM 24.2°F-4.3°C 3.9°F-15.6°C 41% 5.0 mph SW8.0 kmh SW 19.0 mph30.6 kmh 29.71 in1006.1 mb 0.00 in0.0 mm 0.00 in/hr0.0 mm/hr 0.00 in0.0 mm
05:15 AM 24.2°F-4.3°C 3.9°F-15.6°C 41% 6.0 mph SW9.7 kmh SW 20.0 mph32.2 kmh 29.72 in1006.4 mb 0.00 in0.0 mm 0.00 in/hr0.0 mm/hr 0.00 in0.0 mm
05:20 AM 24.2°F-4.3°C 3.9°F-15.6°C 41% 8.0 mph SW12.9 kmh SW 16.0 mph25.7 kmh 29.72 in1006.4 mb 0.00 in0.0 mm 0.00 in/hr0.0 mm/hr 0.00 in0.0 mm
05:30 AM 24.1°F-4.4°C 3.3°F-15.9°C 40% 9.0 mph SSW14.5 kmh SSW 20.0 mph32.2 kmh 29.72 in1006.4 mb 0.00 in0.0 mm 0.00 in/hr0.0 mm/hr 0.00 in0.0 mm
05:35 AM 24.1°F-4.4°C 3.8°F-15.7°C 41% 9.0 mph WSW14.5 kmh WSW 20.0 mph32.2 kmh 29.72 in1006.4 mb 0.00 in0.0 mm 0.00 in/hr0.0 mm/hr 0.00 in0.0 mm
05:40 AM 23.9°F-4.5°C 3.6°F-15.8°C 41% 2.0 mph WSW3.2 kmh WSW 14.0 mph22.5 kmh 29.72 in1006.4 mb 0.00 in0.0 mm 0.00 in/hr0.0 mm/hr 0.00 in0.0 mm
05:45 AM 23.9°F-4.5°C 3.6°F-15.8°C 41% 12.0 mph SW19.3 kmh SW 14.0 mph22.5 kmh 29.73 in1006.8 mb 0.00 in0.0 mm 0.00 in/hr0.0 mm/hr 0.00 in0.0 mm
05:50 AM 23.9°F-4.5°C 3.6°F-15.8°C 41% 5.0 mph WSW8.0 kmh WSW 13.0 mph20.9 kmh 29.73 in1006.8 mb 0.00 in0.0 mm 0.00 in/hr0.0 mm/hr 0.00 in0.0 mm
05:55 AM 23.8°F-4.6°C 3.5°F-15.8°C 41% 3.0 mph SW4.8 kmh SW 17.0 mph27.4 kmh 29.73 in1006.8 mb 0.00 in0.0 mm 0.00 in/hr0.0 mm/hr 0.00 in0.0 mm
06:00 AM 23.8°F-4.6°C 4.0°F-15.6°C 42% 2.0 mph SW3.2 kmh SW 12.0 mph19.3 kmh 29.74 in1007.1 mb 0.00 in0.0 mm 0.00 in/hr0.0 mm/hr 0.00 in0.0 mm
06:05 AM 23.8°F-4.6°C 4.0°F-15.6°C 42% 4.0 mph SW6.4 kmh SW 14.0 mph22.5 kmh 29.74 in1007.1 mb 0.00 in0.0 mm 0.00 in/hr0.0 mm/hr 0.00 in0.0 mm
06:10 AM 23.8°F-4.6°C 4.0°F-15.6°C 42% Calm Calm 12.0 mph19.3 kmh 29.74 in1007.1 mb 0.00 in0.0 mm 0.00 in/hr0.0 mm/hr 0.00 in0.0 mm
06:15 AM 23.6°F-4.7°C 3.9°F-15.6°C 42% 3.0 mph SW4.8 kmh SW 12.0 mph19.3 kmh 29.75 in1007.5 mb 0.00 in0.0 mm 0.00 in/hr0.0 mm/hr 0.00 in0.0 mm
06:20 AM 23.6°F-4.7°C 3.9°F-15.6°C 42% 5.0 mph SW8.0 kmh SW 12.0 mph19.3 kmh 29.75 in1007.5 mb 0.00 in0.0 mm 0.00 in/hr0.0 mm/hr 0.00 in0.0 mm
06:25 AM 23.6°F-4.7°C 3.9°F-15.6°C 42% 4.0 mph SW6.4 kmh SW 9.0 mph14.5 kmh 29.75 in1007.5 mb 0.00 in0.0 mm 0.00 in/hr0.0 mm/hr 0.00 in0.0 mm
06:30 AM 23.6°F-4.7°C 3.9°F-15.6°C 42% 11.0 mph WSW17.7 kmh WSW 12.0 mph19.3 kmh 29.75 in1007.5 mb 0.00 in0.0 mm 0.00 in/hr0.0 mm/hr 0.00 in0.0 mm
06:35 AM 23.5°F-4.7°C 3.8°F-15.7°C 42% 9.0 mph SW14.5 kmh SW 13.0 mph20.9 kmh 29.75 in1007.5 mb 0.00 in0.0 mm 0.00 in/hr0.0 mm/hr 0.00 in0.0 mm
06:40 AM 23.5°F-4.7°C 3.3°F-15.9°C 41% 3.0 mph WSW4.8 kmh WSW 15.0 mph24.1 kmh 29.75 in1007.5 mb 0.00 in0.0 mm 0.00 in/hr0.0 mm/hr 0.00 in0.0 mm
06:45 AM 23.5°F-4.7°C 3.3°F-15.9°C 41% 7.0 mph W11.3 kmh W 13.0 mph20.9 kmh 29.77 in1008.1 mb 0.00 in0.0 mm 0.00 in/hr0.0 mm/hr 0.00 in0.0 mm
06:50 AM 23.5°F-4.7°C 3.3°F-15.9°C 41% 9.0 mph WSW14.5 kmh WSW 13.0 mph20.9 kmh 29.77 in1008.1 mb 0.00 in0.0 mm 0.00 in/hr0.0 mm/hr 0.00 in0.0 mm
06:55 AM 23.5°F-4.7°C 3.8°F-15.7°C 42% 5.0 mph WSW8.0 kmh WSW 13.0 mph20.9 kmh 29.77 in1008.1 mb 0.00 in0.0 mm 0.00 in/hr0.0 mm/hr 0.00 in0.0 mm
07:00 AM 23.3°F-4.8°C 3.6°F-15.8°C 42% 1.0 mph WSW1.6 kmh WSW 13.0 mph20.9 kmh 29.77 in1008.1 mb 0.00 in0.0 mm 0.00 in/hr0.0 mm/hr 0.00 in0.0 mm
07:05 AM 23.3°F-4.8°C 3.6°F-15.8°C 42% 10.0 mph NW16.1 kmh NW 14.0 mph22.5 kmh 29.77 in1008.1 mb 0.00 in0.0 mm 0.00 in/hr0.0 mm/hr 0.00 in0.0 mm
07:10 AM 23.2°F-4.9°C 3.0°F-16.1°C 41% Calm Calm 14.0 mph22.5 kmh 29.77 in1008.1 mb 0.00 in0.0 mm 0.00 in/hr0.0 mm/hr 0.00 in0.0 mm
07:15 AM 23.2°F-4.9°C 3.0°F-16.1°C 41% 5.0 mph W8.0 kmh W 12.0 mph19.3 kmh 29.78 in1008.5 mb 0.00 in0.0 mm 0.00 in/hr0.0 mm/hr 0.00 in0.0 mm
07:20 AM 23.2°F-4.9°C 3.0°F-16.1°C 41% 7.0 mph WSW11.3 kmh WSW 14.0 mph22.5 kmh 29.78 in1008.5 mb 0.00 in0.0 mm 0.00 in/hr0.0 mm/hr 0.00 in0.0 mm
07:25 AM 23.2°F-4.9°C 3.5°F-15.8°C 42% 6.0 mph SW9.7 kmh SW 16.0 mph25.7 kmh 29.78 in1008.5 mb 0.00 in0.0 mm 0.00 in/hr0.0 mm/hr 0.00 in0.0 mm
07:30 AM 23.2°F-4.9°C 3.5°F-15.8°C 42% 10.0 mph SW16.1 kmh SW 13.0 mph20.9 kmh 29.80 in1009.1 mb 0.00 in0.0 mm 0.00 in/hr0.0 mm/hr 0.00 in0.0 mm
07:35 AM 23.2°F-4.9°C 3.5°F-15.8°C 42% Calm Calm 15.0 mph24.1 kmh 29.80 in1009.1 mb 0.00 in0.0 mm 0.00 in/hr0.0 mm/hr 0.00 in0.0 mm
07:40 AM 23.2°F-4.9°C 4.5°F-15.3°C 44% 3.0 mph SW4.8 kmh SW 16.0 mph25.7 kmh 29.80 in1009.1 mb 0.00 in0.0 mm 0.00 in/hr0.0 mm/hr 0.00 in0.0 mm
07:45 AM 23.2°F-4.9°C 4.5°F-15.3°C 44% 5.0 mph SW8.0 kmh SW 9.0 mph14.5 kmh 29.80 in1009.1 mb 0.00 in0.0 mm 0.00 in/hr0.0 mm/hr 0.00 in0.0 mm
07:50 AM 23.3°F-4.8°C 4.1°F-15.5°C 43% 4.0 mph SW6.4 kmh SW 12.0 mph19.3 kmh 29.80 in1009.1 mb 0.00 in0.0 mm 0.00 in/hr0.0 mm/hr 0.00 in0.0 mm
07:55 AM 23.2°F-4.9°C 3.5°F-15.8°C 42% 2.0 mph WSW3.2 kmh WSW 10.0 mph16.1 kmh 29.80 in1009.1 mb 0.00 in0.0 mm 0.00 in/hr0.0 mm/hr 0.00 in0.0 mm
08:00 AM 23.2°F-4.9°C 5.0°F-15.0°C 45% 4.0 mph SSW6.4 kmh SSW 13.0 mph20.9 kmh 29.81 in1009.5 mb 0.00 in0.0 mm 0.00 in/hr0.0 mm/hr 0.00 in0.0 mm
08:05 AM 23.2°F-4.9°C 3.0°F-16.1°C 41% 7.0 mph SSW11.3 kmh SSW 11.0 mph17.7 kmh 29.81 in1009.5 mb 0.00 in0.0 mm 0.00 in/hr0.0 mm/hr 0.00 in0.0 mm
08:10 AM 23.2°F-4.9°C 3.0°F-16.1°C 41% 2.0 mph WSW3.2 kmh WSW 12.0 mph19.3 kmh 29.81 in1009.5 mb 0.00 in0.0 mm 0.00 in/hr0.0 mm/hr 0.00 in0.0 mm
08:15 AM 23.2°F-4.9°C 3.0°F-16.1°C 41% 7.0 mph SW11.3 kmh SW 11.0 mph17.7 kmh 29.82 in1009.8 mb 0.00 in0.0 mm 0.00 in/hr0.0 mm/hr 0.00 in0.0 mm
08:20 AM 23.2°F-4.9°C 2.4°F-16.4°C 40% 6.0 mph SSW9.7 kmh SSW 12.0 mph19.3 kmh 29.82 in1009.8 mb 0.00 in0.0 mm 0.00 in/hr0.0 mm/hr 0.00 in0.0 mm
08:25 AM 23.2°F-4.9°C 1.4°F-17.0°C 38% 4.0 mph SW6.4 kmh SW 13.0 mph20.9 kmh 29.82 in1009.8 mb 0.00 in0.0 mm 0.00 in/hr0.0 mm/hr 0.00 in0.0 mm
08:30 AM 23.3°F-4.8°C 1.4°F-17.0°C 38% 3.0 mph SW4.8 kmh SW 13.0 mph20.9 kmh 29.84 in1010.5 mb 0.00 in0.0 mm 0.00 in/hr0.0 mm/hr 0.00 in0.0 mm
08:35 AM 23.5°F-4.7°C 1.6°F-16.9°C 38% 1.0 mph W1.6 kmh W 12.0 mph19.3 kmh 29.84 in1010.5 mb 0.00 in0.0 mm 0.00 in/hr0.0 mm/hr 0.00 in0.0 mm
08:40 AM 23.5°F-4.7°C 1.6°F-16.9°C 38% 4.0 mph SW6.4 kmh SW 12.0 mph19.3 kmh 29.84 in1010.5 mb 0.00 in0.0 mm 0.00 in/hr0.0 mm/hr 0.00 in0.0 mm
08:45 AM 23.6°F-4.7°C 1.1°F-17.2°C 37% Calm Calm 12.0 mph19.3 kmh 29.84 in1010.5 mb 0.00 in0.0 mm 0.00 in/hr0.0 mm/hr 0.00 in0.0 mm
08:50 AM 23.8°F-4.6°C 0.7°F-17.4°C 36% 9.0 mph WSW14.5 kmh WSW 13.0 mph20.9 kmh 29.84 in1010.5 mb 0.00 in0.0 mm 0.00 in/hr0.0 mm/hr 0.00 in0.0 mm
08:55 AM 23.8°F-4.6°C 0.1°F-17.7°C 35% 4.0 mph SW6.4 kmh SW 13.0 mph20.9 kmh 29.84 in1010.5 mb 0.00 in0.0 mm 0.00 in/hr0.0 mm/hr 0.00 in0.0 mm
09:00 AM 23.9°F-4.5°C 0.2°F-17.7°C 35% 9.0 mph WSW14.5 kmh WSW 16.0 mph25.7 kmh 29.84 in1010.5 mb 0.00 in0.0 mm 0.00 in/hr0.0 mm/hr 0.00 in0.0 mm
09:05 AM 24.1°F-4.4°C -5537.2°C 33% 4.0 mph SW6.4 kmh SW 17.0 mph27.4 kmh 29.84 in1010.5 mb 0.00 in0.0 mm 0.00 in/hr0.0 mm/hr 0.00 in0.0 mm
09:10 AM 24.2°F-4.3°C -5537.2°C 33% 4.0 mph W6.4 kmh W 11.0 mph17.7 kmh 29.84 in1010.5 mb 0.00 in0.0 mm 0.00 in/hr0.0 mm/hr 0.00 in0.0 mm
09:15 AM 24.4°F-4.2°C -5537.2°C 32% 13.0 mph SW20.9 kmh SW 17.0 mph27.4 kmh 29.84 in1010.5 mb 0.00 in0.0 mm 0.00 in/hr0.0 mm/hr 0.00 in0.0 mm
09:20 AM 24.5°F-4.2°C -5537.2°C 31% 3.0 mph WSW4.8 kmh WSW 19.0 mph30.6 kmh 29.84 in1010.5 mb 0.00 in0.0 mm 0.00 in/hr0.0 mm/hr 0.00 in0.0 mm
09:25 AM 24.7°F-4.1°C -5537.2°C 31% 5.0 mph SSW8.0 kmh SSW 14.0 mph22.5 kmh 29.84 in1010.5 mb 0.00 in0.0 mm 0.00 in/hr0.0 mm/hr 0.00 in0.0 mm
09:30 AM 24.8°F-4.0°C -5537.2°C 30% 6.0 mph SW9.7 kmh SW 19.0 mph30.6 kmh 29.85 in1010.8 mb 0.00 in0.0 mm 0.00 in/hr0.0 mm/hr 0.00 in0.0 mm
09:35 AM 25.0°F-3.9°C -5537.2°C 30% 1.0 mph W1.6 kmh W 16.0 mph25.7 kmh 29.85 in1010.8 mb 0.00 in0.0 mm 0.00 in/hr0.0 mm/hr 0.00 in0.0 mm
09:40 AM 25.1°F-3.8°C -5537.2°C 29% 5.0 mph WNW8.0 kmh WNW 16.0 mph25.7 kmh 29.85 in1010.8 mb 0.00 in0.0 mm 0.00 in/hr0.0 mm/hr 0.00 in0.0 mm
09:45 AM 25.4°F-3.7°C -5537.2°C 29% 12.0 mph W19.3 kmh W 14.0 mph22.5 kmh 29.86 in1011.2 mb 0.00 in0.0 mm 0.00 in/hr0.0 mm/hr 0.00 in0.0 mm
09:50 AM 25.4°F-3.7°C -5537.2°C 27% 6.0 mph SW9.7 kmh SW 22.0 mph35.4 kmh 29.86 in1011.2 mb 0.00 in0.0 mm 0.00 in/hr0.0 mm/hr 0.00 in0.0 mm
09:55 AM 25.6°F-3.6°C -3.0°F-19.4°C 28% 7.0 mph WSW11.3 kmh WSW 15.0 mph24.1 kmh 29.86 in1011.2 mb 0.00 in0.0 mm 0.00 in/hr0.0 mm/hr 0.00 in0.0 mm
10:00 AM 25.8°F-3.4°C -5537.2°C 28% 4.0 mph WSW6.4 kmh WSW 20.0 mph32.2 kmh 29.86 in1011.2 mb 0.00 in0.0 mm 0.00 in/hr0.0 mm/hr 0.00 in0.0 mm
10:05 AM 26.1°F-3.3°C -5537.2°C 27% 4.0 mph SW6.4 kmh SW 14.0 mph22.5 kmh 29.86 in1011.2 mb 0.00 in0.0 mm 0.00 in/hr0.0 mm/hr 0.00 in0.0 mm
10:10 AM 26.3°F-3.2°C -5537.2°C 27% 4.0 mph NW6.4 kmh NW 20.0 mph32.2 kmh 29.86 in1011.2 mb 0.00 in0.0 mm 0.00 in/hr0.0 mm/hr 0.00 in0.0 mm
10:15 AM 26.7°F-2.9°C -5537.2°C 27% 9.0 mph SW14.5 kmh SW 13.0 mph20.9 kmh 29.86 in1011.2 mb 0.00 in0.0 mm 0.00 in/hr0.0 mm/hr 0.00 in0.0 mm
10:20 AM 27.2°F-2.7°C -5537.2°C 27% 4.0 mph SW6.4 kmh SW 14.0 mph22.5 kmh 29.86 in1011.2 mb 0.00 in0.0 mm 0.00 in/hr0.0 mm/hr 0.00 in0.0 mm
10:25 AM 27.0°F-2.8°C -5537.2°C 26% 13.0 mph WSW20.9 kmh WSW 19.0 mph30.6 kmh 29.86 in1011.2 mb 0.00 in0.0 mm 0.00 in/hr0.0 mm/hr 0.00 in0.0 mm
10:30 AM 27.0°F-2.8°C -5537.2°C 25% 7.0 mph WSW11.3 kmh WSW 16.0 mph25.7 kmh 29.86 in1011.2 mb 0.00 in0.0 mm 0.00 in/hr0.0 mm/hr 0.00 in0.0 mm
10:35 AM 27.5°F-2.5°C -5537.2°C 25% 5.0 mph SW8.0 kmh SW 14.0 mph22.5 kmh 29.86 in1011.2 mb 0.00 in0.0 mm 0.00 in/hr0.0 mm/hr 0.00 in0.0 mm
10:40 AM 27.3°F-2.6°C -5537.2°C 26% 6.0 mph SW9.7 kmh SW 16.0 mph25.7 kmh 29.86 in1011.2 mb 0.00 in0.0 mm 0.00 in/hr0.0 mm/hr 0.00 in0.0 mm
10:45 AM 27.5°F-2.5°C -5537.2°C 25% 2.0 mph SW3.2 kmh SW 14.0 mph22.5 kmh 29.85 in1010.8 mb 0.00 in0.0 mm 0.00 in/hr0.0 mm/hr 0.00 in0.0 mm
10:50 AM 27.8°F-2.3°C -5537.2°C 25% 10.0 mph WSW16.1 kmh WSW 14.0 mph22.5 kmh 29.85 in1010.8 mb 0.00 in0.0 mm 0.00 in/hr0.0 mm/hr 0.00 in0.0 mm
10:55 AM 27.8°F-2.3°C -5537.2°C 24% 5.0 mph WSW8.0 kmh WSW 19.0 mph30.6 kmh 29.85 in1010.8 mb 0.00 in0.0 mm 0.00 in/hr0.0 mm/hr 0.00 in0.0 mm
11:00 AM 27.9°F-2.3°C -5537.2°C 25% 3.0 mph WSW4.8 kmh WSW 16.0 mph25.7 kmh 29.84 in1010.5 mb 0.00 in0.0 mm 0.00 in/hr0.0 mm/hr 0.00 in0.0 mm
11:05 AM 28.7°F-1.8°C -5537.2°C 23% 11.0 mph WNW17.7 kmh WNW 16.0 mph25.7 kmh 29.84 in1010.5 mb 0.00 in0.0 mm 0.00 in/hr0.0 mm/hr 0.00 in0.0 mm
11:10 AM 28.7°F-1.8°C -5537.2°C 23% 2.0 mph SW3.2 kmh SW 15.0 mph24.1 kmh 29.84 in1010.5 mb 0.00 in0.0 mm 0.00 in/hr0.0 mm/hr 0.00 in0.0 mm
11:15 AM 29.3°F-1.5°C -5537.2°C 22% 2.0 mph SW3.2 kmh SW 21.0 mph33.8 kmh 29.83 in1010.2 mb 0.00 in0.0 mm 0.00 in/hr0.0 mm/hr 0.00 in0.0 mm
11:20 AM 29.1°F-1.6°C -6.0°F-21.1°C 21% 5.0 mph SW8.0 kmh SW 15.0 mph24.1 kmh 29.83 in1010.2 mb 0.00 in0.0 mm 0.00 in/hr0.0 mm/hr 0.00 in0.0 mm
11:25 AM 29.5°F-1.4°C -5537.2°C 21% 4.0 mph S6.4 kmh S 17.0 mph27.4 kmh 29.83 in1010.2 mb 0.00 in0.0 mm 0.00 in/hr0.0 mm/hr 0.00 in0.0 mm
11:30 AM 29.7°F-1.3°C -5537.2°C 21% 6.0 mph WSW9.7 kmh WSW 14.0 mph22.5 kmh 29.83 in1010.2 mb 0.00 in0.0 mm 0.00 in/hr0.0 mm/hr 0.00 in0.0 mm
11:35 AM 30.0°F-1.1°C -5537.2°C 19% 6.0 mph S9.7 kmh S 16.0 mph25.7 kmh 29.83 in1010.2 mb 0.00 in0.0 mm 0.00 in/hr0.0 mm/hr 0.00 in0.0 mm
11:40 AM 30.1°F-1.1°C -5537.2°C 19% 3.0 mph WSW4.8 kmh WSW 16.0 mph25.7 kmh 29.83 in1010.2 mb 0.00 in0.0 mm 0.00 in/hr0.0 mm/hr 0.00 in0.0 mm
11:45 AM 30.1°F-1.1°C -5537.2°C 19% 5.0 mph SW8.0 kmh SW 16.0 mph25.7 kmh 29.83 in1010.2 mb 0.00 in0.0 mm 0.00 in/hr0.0 mm/hr 0.00 in0.0 mm
11:50 AM 30.0°F-1.1°C -5537.2°C 20% 1.0 mph SW1.6 kmh SW 14.0 mph22.5 kmh 29.83 in1010.2 mb 0.00 in0.0 mm 0.00 in/hr0.0 mm/hr 0.00 in0.0 mm
11:55 AM 30.0°F-1.1°C -5537.2°C 21% 3.0 mph SW4.8 kmh SW 14.0 mph22.5 kmh 29.83 in1010.2 mb 0.00 in0.0 mm 0.00 in/hr0.0 mm/hr 0.00 in0.0 mm
12:00 PM 29.8°F-1.2°C -5537.2°C 21% 4.0 mph SW6.4 kmh SW 14.0 mph22.5 kmh 29.83 in1010.2 mb 0.00 in0.0 mm 0.00 in/hr0.0 mm/hr 0.00 in0.0 mm
12:05 PM 30.0°F-1.1°C -5537.2°C 20% 9.0 mph W14.5 kmh W 14.0 mph22.5 kmh 29.83 in1010.2 mb 0.00 in0.0 mm 0.00 in/hr0.0 mm/hr 0.00 in0.0 mm
12:10 PM 30.1°F-1.1°C -5537.2°C 20% 6.0 mph WSW9.7 kmh WSW 16.0 mph25.7 kmh 29.83 in1010.2 mb 0.00 in0.0 mm 0.00 in/hr0.0 mm/hr 0.00 in0.0 mm
12:15 PM 30.4°F-0.9°C -5537.2°C 20% 6.0 mph SSW9.7 kmh SSW 12.0 mph19.3 kmh 29.82 in1009.8 mb 0.00 in0.0 mm 0.00 in/hr0.0 mm/hr 0.00 in0.0 mm
12:20 PM 31.0°F-0.6°C -5537.2°C 20% 3.0 mph W4.8 kmh W 14.0 mph22.5 kmh 29.82 in1009.8 mb 0.00 in0.0 mm 0.00 in/hr0.0 mm/hr 0.00 in0.0 mm
12:25 PM 30.7°F-0.7°C -5537.2°C 21% 6.0 mph WSW9.7 kmh WSW 14.0 mph22.5 kmh 29.82 in1009.8 mb 0.00 in0.0 mm 0.00 in/hr0.0 mm/hr 0.00 in0.0 mm
12:30 PM 31.5°F-0.3°C -5537.2°C 21% 20.0 mph WSW32.2 kmh WSW 20.0 mph32.2 kmh 29.82 in1009.8 mb 0.00 in0.0 mm 0.00 in/hr0.0 mm/hr 0.00 in0.0 mm
12:35 PM 31.0°F-0.6°C -5537.2°C 20% Calm Calm 17.0 mph27.4 kmh 29.82 in1009.8 mb 0.00 in0.0 mm 0.00 in/hr0.0 mm/hr 0.00 in0.0 mm
12:40 PM 31.9°F-0.1°C -5537.2°C 20% 2.0 mph SW3.2 kmh SW 16.0 mph25.7 kmh 29.82 in1009.8 mb 0.00 in0.0 mm 0.00 in/hr0.0 mm/hr 0.00 in0.0 mm
12:45 PM 31.0°F-0.6°C -5537.2°C 19% 10.0 mph SW16.1 kmh SW 15.0 mph24.1 kmh 29.83 in1010.2 mb 0.00 in0.0 mm 0.00 in/hr0.0 mm/hr 0.00 in0.0 mm
12:50 PM 31.3°F-0.4°C -5537.2°C 20% Calm Calm 10.0 mph16.1 kmh 29.83 in1010.2 mb 0.00 in0.0 mm 0.00 in/hr0.0 mm/hr 0.00 in0.0 mm
12:55 PM 31.5°F-0.3°C -5537.2°C 20% 4.0 mph SW6.4 kmh SW 13.0 mph20.9 kmh 29.83 in1010.2 mb 0.00 in0.0 mm 0.00 in/hr0.0 mm/hr 0.00 in0.0 mm
01:00 PM 31.3°F-0.4°C -5537.2°C 20% 6.0 mph SW9.7 kmh SW 15.0 mph24.1 kmh 29.83 in1010.2 mb 0.00 in0.0 mm 0.00 in/hr0.0 mm/hr 0.00 in0.0 mm
01:05 PM 31.6°F-0.2°C -5537.2°C 21% 8.0 mph SW12.9 kmh SW 15.0 mph24.1 kmh 29.83 in1010.2 mb 0.00 in0.0 mm 0.00 in/hr0.0 mm/hr 0.00 in0.0 mm
01:10 PM 32.1°F0.1°C -5537.2°C 21% 6.0 mph SSW9.7 kmh SSW 16.0 mph25.7 kmh 29.83 in1010.2 mb 0.00 in0.0 mm 0.00 in/hr0.0 mm/hr 0.00 in0.0 mm
01:15 PM 31.8°F-0.1°C -5537.2°C 21% 6.0 mph SW9.7 kmh SW 16.0 mph25.7 kmh 29.83 in1010.2 mb 0.00 in0.0 mm 0.00 in/hr0.0 mm/hr 0.00 in0.0 mm
01:20 PM 32.2°F0.1°C -5537.2°C 21% 5.0 mph SW8.0 kmh SW 17.0 mph27.4 kmh 29.83 in1010.2 mb 0.00 in0.0 mm 0.00 in/hr0.0 mm/hr 0.00 in0.0 mm
01:25 PM 32.2°F0.1°C -5537.2°C 21% 1.0 mph SW1.6 kmh SW 10.0 mph16.1 kmh 29.83 in1010.2 mb 0.00 in0.0 mm 0.00 in/hr0.0 mm/hr 0.00 in0.0 mm
01:30 PM 32.4°F0.2°C -5537.2°C 20% 5.0 mph SW8.0 kmh SW 15.0 mph24.1 kmh 29.83 in1010.2 mb 0.00 in0.0 mm 0.00 in/hr0.0 mm/hr 0.00 in0.0 mm
01:35 PM 32.8°F0.4°C -5537.2°C 21% 1.0 mph S1.6 kmh S 13.0 mph20.9 kmh 29.83 in1010.2 mb 0.00 in0.0 mm 0.00 in/hr0.0 mm/hr 0.00 in0.0 mm
01:40 PM 32.7°F0.4°C -1.0°F-18.3°C 23% 3.0 mph S4.8 kmh S 10.0 mph16.1 kmh 29.83 in1010.2 mb 0.00 in0.0 mm 0.00 in/hr0.0 mm/hr 0.00 in0.0 mm
01:45 PM 32.8°F0.4°C -5537.2°C 23% 3.0 mph SW4.8 kmh SW 10.0 mph16.1 kmh 29.83 in1010.2 mb 0.00 in0.0 mm 0.00 in/hr0.0 mm/hr 0.00 in0.0 mm
01:50 PM 32.8°F0.4°C -5537.2°C 22% 6.0 mph SSW9.7 kmh SSW 14.0 mph22.5 kmh 29.83 in1010.2 mb 0.00 in0.0 mm 0.00 in/hr0.0 mm/hr 0.00 in0.0 mm
01:55 PM 32.7°F0.4°C -5537.2°C 22% 10.0 mph SW16.1 kmh SW 13.0 mph20.9 kmh 29.83 in1010.2 mb 0.00 in0.0 mm 0.00 in/hr0.0 mm/hr 0.00 in0.0 mm
02:00 PM 32.7°F0.4°C -5537.2°C 22% 3.0 mph SSW4.8 kmh SSW 14.0 mph22.5 kmh 29.83 in1010.2 mb 0.00 in0.0 mm 0.00 in/hr0.0 mm/hr 0.00 in0.0 mm
02:05 PM 32.7°F0.4°C -5537.2°C 22% 7.0 mph SW11.3 kmh SW 13.0 mph20.9 kmh 29.83 in1010.2 mb 0.00 in0.0 mm 0.00 in/hr0.0 mm/hr 0.00 in0.0 mm
02:10 PM 32.5°F0.3°C -5537.2°C 21% 3.0 mph SW4.8 kmh SW 15.0 mph24.1 kmh 29.83 in1010.2 mb 0.00 in0.0 mm 0.00 in/hr0.0 mm/hr 0.00 in0.0 mm
02:15 PM 32.5°F0.3°C -5537.2°C 21% 10.0 mph SW16.1 kmh SW 15.0 mph24.1 kmh 29.84 in1010.5 mb 0.00 in0.0 mm 0.00 in/hr0.0 mm/hr 0.00 in0.0 mm
02:20 PM 32.5°F0.3°C -5537.2°C 21% Calm Calm 17.0 mph27.4 kmh 29.84 in1010.5 mb 0.00 in0.0 mm 0.00 in/hr0.0 mm/hr 0.00 in0.0 mm
02:25 PM 32.8°F0.4°C -5537.2°C 21% 4.0 mph SW6.4 kmh SW 15.0 mph24.1 kmh 29.84 in1010.5 mb 0.00 in0.0 mm 0.00 in/hr0.0 mm/hr 0.00 in0.0 mm
02:31 PM 32.8°F0.4°C -5537.2°C 22% 7.0 mph SW11.3 kmh SW 14.0 mph22.5 kmh 29.84 in1010.5 mb 0.00 in0.0 mm 0.00 in/hr0.0 mm/hr 0.00 in0.0 mm
02:35 PM 32.7°F0.4°C -1.0°F-18.3°C 23% 6.0 mph SSW9.7 kmh SSW 16.0 mph25.7 kmh 29.84 in1010.5 mb 0.00 in0.0 mm 0.00 in/hr0.0 mm/hr 0.00 in0.0 mm
02:40 PM 32.7°F0.4°C -1.0°F-18.3°C 23% 6.0 mph SSW9.7 kmh SSW 12.0 mph19.3 kmh 29.84 in1010.5 mb 0.00 in0.0 mm 0.00 in/hr0.0 mm/hr 0.00 in0.0 mm
02:45 PM 32.8°F0.4°C -5537.2°C 23% 7.0 mph SW11.3 kmh SW 14.0 mph22.5 kmh 29.84 in1010.5 mb 0.00 in0.0 mm 0.00 in/hr0.0 mm/hr 0.00 in0.0 mm
02:50 PM 32.8°F0.4°C -5537.2°C 23% 11.0 mph WSW17.7 kmh WSW 12.0 mph19.3 kmh 29.84 in1010.5 mb 0.00 in0.0 mm 0.00 in/hr0.0 mm/hr 0.00 in0.0 mm
02:55 PM 32.8°F0.4°C -5537.2°C 23% 3.0 mph SSW4.8 kmh SSW 13.0 mph20.9 kmh 29.84 in1010.5 mb 0.00 in0.0 mm 0.00 in/hr0.0 mm/hr 0.00 in0.0 mm
03:00 PM 32.8°F0.4°C -5537.2°C 23% 9.0 mph SW14.5 kmh SW 12.0 mph19.3 kmh 29.84 in1010.5 mb 0.00 in0.0 mm 0.00 in/hr0.0 mm/hr 0.00 in0.0 mm
03:05 PM 32.8°F0.4°C 0.0°F-17.8°C 24% 5.0 mph SW8.0 kmh SW 13.0 mph20.9 kmh 29.84 in1010.5 mb 0.00 in0.0 mm 0.00 in/hr0.0 mm/hr 0.00 in0.0 mm
03:10 PM 32.8°F0.4°C 0.0°F-17.8°C 24% 3.0 mph SW4.8 kmh SW 11.0 mph17.7 kmh 29.84 in1010.5 mb 0.00 in0.0 mm 0.00 in/hr0.0 mm/hr 0.00 in0.0 mm
03:15 PM 32.9°F0.5°C 0.9°F-17.3°C 25% 4.0 mph SW6.4 kmh SW 13.0 mph20.9 kmh 29.85 in1010.8 mb 0.00 in0.0 mm 0.00 in/hr0.0 mm/hr 0.00 in0.0 mm
03:20 PM 32.8°F0.4°C -5537.2°C 23% 5.0 mph SSW8.0 kmh SSW 12.0 mph19.3 kmh 29.85 in1010.8 mb 0.00 in0.0 mm 0.00 in/hr0.0 mm/hr 0.00 in0.0 mm
03:25 PM 32.8°F0.4°C 0.0°F-17.8°C 24% 4.0 mph SW6.4 kmh SW 11.0 mph17.7 kmh 29.85 in1010.8 mb 0.00 in0.0 mm 0.00 in/hr0.0 mm/hr 0.00 in0.0 mm
03:30 PM 32.9°F0.5°C 0.1°F-17.7°C 24% 6.0 mph SW9.7 kmh SW 13.0 mph20.9 kmh 29.86 in1011.2 mb 0.00 in0.0 mm 0.00 in/hr0.0 mm/hr 0.00 in0.0 mm
03:35 PM 32.8°F0.4°C 0.0°F-17.8°C 24% 5.0 mph SW8.0 kmh SW 16.0 mph25.7 kmh 29.86 in1011.2 mb 0.00 in0.0 mm 0.00 in/hr0.0 mm/hr 0.00 in0.0 mm
03:40 PM 32.7°F0.4°C -5537.2°C 24% 3.0 mph SW4.8 kmh SW 14.0 mph22.5 kmh 29.86 in1011.2 mb 0.00 in0.0 mm 0.00 in/hr0.0 mm/hr 0.00 in0.0 mm
03:45 PM 32.5°F0.3°C -5537.2°C 24% 11.0 mph SW17.7 kmh SW 14.0 mph22.5 kmh 29.87 in1011.5 mb 0.00 in0.0 mm 0.00 in/hr0.0 mm/hr 0.00 in0.0 mm
03:50 PM 32.5°F0.3°C -5537.2°C 24% 10.0 mph WSW16.1 kmh WSW 14.0 mph22.5 kmh 29.87 in1011.5 mb 0.00 in0.0 mm 0.00 in/hr0.0 mm/hr 0.00 in0.0 mm
03:55 PM 32.4°F0.2°C -5537.2°C 24% 13.0 mph SW20.9 kmh SW 15.0 mph24.1 kmh 29.87 in1011.5 mb 0.00 in0.0 mm 0.00 in/hr0.0 mm/hr 0.00 in0.0 mm
04:00 PM 32.2°F0.1°C -5537.2°C 24% 1.0 mph SW1.6 kmh SW 15.0 mph24.1 kmh 29.88 in1011.9 mb 0.00 in0.0 mm 0.00 in/hr0.0 mm/hr 0.00 in0.0 mm
04:05 PM 32.1°F0.1°C -5537.2°C 24% 2.0 mph SSW3.2 kmh SSW 13.0 mph20.9 kmh 29.88 in1011.9 mb 0.00 in0.0 mm 0.00 in/hr0.0 mm/hr 0.00 in0.0 mm
04:10 PM 31.9°F-0.1°C -5537.2°C 24% 10.0 mph SW16.1 kmh SW 13.0 mph20.9 kmh 29.88 in1011.9 mb 0.00 in0.0 mm 0.00 in/hr0.0 mm/hr 0.00 in0.0 mm
04:15 PM 31.9°F-0.1°C -5537.2°C 24% 10.0 mph SW16.1 kmh SW 14.0 mph22.5 kmh 29.88 in1011.9 mb 0.00 in0.0 mm 0.00 in/hr0.0 mm/hr 0.00 in0.0 mm
04:20 PM 31.8°F-0.1°C -5537.2°C 24% 2.0 mph WSW3.2 kmh WSW 17.0 mph27.4 kmh 29.88 in1011.9 mb 0.00 in0.0 mm 0.00 in/hr0.0 mm/hr 0.00 in0.0 mm
04:25 PM 31.6°F-0.2°C -5537.2°C 25% 4.0 mph SW6.4 kmh SW 14.0 mph22.5 kmh 29.88 in1011.9 mb 0.00 in0.0 mm 0.00 in/hr0.0 mm/hr 0.00 in0.0 mm
04:30 PM 31.5°F-0.3°C -5537.2°C 25% 7.0 mph SW11.3 kmh SW 12.0 mph19.3 kmh 29.89 in1012.2 mb 0.00 in0.0 mm 0.00 in/hr0.0 mm/hr 0.00 in0.0 mm
04:35 PM 31.5°F-0.3°C -5537.2°C 25% 9.0 mph SW14.5 kmh SW 12.0 mph19.3 kmh 29.89 in1012.2 mb 0.00 in0.0 mm 0.00 in/hr0.0 mm/hr 0.00 in0.0 mm
04:40 PM 31.5°F-0.3°C 0.6°F-17.4°C 26% 5.0 mph SW8.0 kmh SW 12.0 mph19.3 kmh 29.89 in1012.2 mb 0.00 in0.0 mm 0.00 in/hr0.0 mm/hr 0.00 in0.0 mm
04:45 PM 31.3°F-0.4°C 0.4°F-17.6°C 26% 7.0 mph SW11.3 kmh SW 14.0 mph22.5 kmh 29.89 in1012.2 mb 0.00 in0.0 mm 0.00 in/hr0.0 mm/hr 0.00 in0.0 mm
04:55 PM 31.2°F-0.4°C 0.3°F-17.6°C 26% 9.0 mph SW14.5 kmh SW 11.0 mph17.7 kmh 29.89 in1012.2 mb 0.00 in0.0 mm 0.00 in/hr0.0 mm/hr 0.00 in0.0 mm
05:00 PM 31.2°F-0.4°C 0.3°F-17.6°C 26% 4.0 mph SW6.4 kmh SW 12.0 mph19.3 kmh 29.90 in1012.5 mb 0.00 in0.0 mm 0.00 in/hr0.0 mm/hr 0.00 in0.0 mm
05:05 PM 31.2°F-0.4°C 1.1°F-17.2°C 27% 2.0 mph SW3.2 kmh SW 9.0 mph14.5 kmh 29.90 in1012.5 mb 0.00 in0.0 mm 0.00 in/hr0.0 mm/hr 0.00 in0.0 mm
05:10 PM 31.0°F-0.6°C 0.9°F-17.3°C 27% 1.0 mph SW1.6 kmh SW 10.0 mph16.1 kmh 29.90 in1012.5 mb 0.00 in0.0 mm 0.00 in/hr0.0 mm/hr 0.00 in0.0 mm
05:15 PM 31.0°F-0.6°C 1.7°F-16.8°C 28% 3.0 mph SSW4.8 kmh SSW 11.0 mph17.7 kmh 29.91 in1012.9 mb 0.00 in0.0 mm 0.00 in/hr0.0 mm/hr 0.00 in0.0 mm
05:20 PM 30.9°F-0.6°C 1.6°F-16.9°C 28% Calm Calm 10.0 mph16.1 kmh 29.91 in1012.9 mb 0.00 in0.0 mm 0.00 in/hr0.0 mm/hr 0.00 in0.0 mm
05:25 PM 30.9°F-0.6°C 0.8°F-17.3°C 27% 5.0 mph SSW8.0 kmh SSW 6.0 mph9.7 kmh 29.91 in1012.9 mb 0.00 in0.0 mm 0.00 in/hr0.0 mm/hr 0.00 in0.0 mm
05:30 PM 30.7°F-0.7°C 1.4°F-17.0°C 28% 5.0 mph SW8.0 kmh SW 10.0 mph16.1 kmh 29.91 in1012.9 mb 0.00 in0.0 mm 0.00 in/hr0.0 mm/hr 0.00 in0.0 mm
05:35 PM 30.7°F-0.7°C 1.4°F-17.0°C 28% 7.0 mph SSW11.3 kmh SSW 7.0 mph11.3 kmh 29.91 in1012.9 mb 0.00 in0.0 mm 0.00 in/hr0.0 mm/hr 0.00 in0.0 mm
05:40 PM 30.7°F-0.7°C 1.4°F-17.0°C 28% 5.0 mph SSW8.0 kmh SSW 11.0 mph17.7 kmh 29.91 in1012.9 mb 0.00 in0.0 mm 0.00 in/hr0.0 mm/hr 0.00 in0.0 mm
05:45 PM 30.7°F-0.7°C 1.4°F-17.0°C 28% 9.0 mph SW14.5 kmh SW 10.0 mph16.1 kmh 29.91 in1012.9 mb 0.00 in0.0 mm 0.00 in/hr0.0 mm/hr 0.00 in0.0 mm
05:50 PM 30.6°F-0.8°C 1.4°F-17.0°C 28% 5.0 mph SW8.0 kmh SW 13.0 mph20.9 kmh 29.91 in1012.9 mb 0.00 in0.0 mm 0.00 in/hr0.0 mm/hr 0.00 in0.0 mm
05:55 PM 30.6°F-0.8°C 1.4°F-17.0°C 28% 3.0 mph SSW4.8 kmh SSW 10.0 mph16.1 kmh 29.91 in1012.9 mb 0.00 in0.0 mm 0.00 in/hr0.0 mm/hr 0.00 in0.0 mm
06:00 PM 30.6°F-0.8°C 1.4°F-17.0°C 28% 5.0 mph SW8.0 kmh SW 7.0 mph11.3 kmh 29.91 in1012.9 mb 0.00 in0.0 mm 0.00 in/hr0.0 mm/hr 0.00 in0.0 mm
06:05 PM 30.4°F-0.9°C 2.7°F-16.3°C 30% 3.0 mph SW4.8 kmh SW 4.0 mph6.4 kmh 29.91 in1012.9 mb 0.00 in0.0 mm 0.00 in/hr0.0 mm/hr 0.00 in0.0 mm
06:10 PM 30.4°F-0.9°C 1.9°F-16.7°C 29% 4.0 mph SSW6.4 kmh SSW 9.0 mph14.5 kmh 29.91 in1012.9 mb 0.00 in0.0 mm 0.00 in/hr0.0 mm/hr 0.00 in0.0 mm
06:15 PM 30.4°F-0.9°C 2.7°F-16.3°C 30% 1.0 mph SSW1.6 kmh SSW 6.0 mph9.7 kmh 29.91 in1012.9 mb 0.00 in0.0 mm 0.00 in/hr0.0 mm/hr 0.00 in0.0 mm
06:20 PM 30.4°F-0.9°C 2.7°F-16.3°C 30% 6.0 mph SSW9.7 kmh SSW 7.0 mph11.3 kmh 29.91 in1012.9 mb 0.00 in0.0 mm 0.00 in/hr0.0 mm/hr 0.00 in0.0 mm
06:25 PM 30.4°F-0.9°C 2.7°F-16.3°C 30% Calm Calm 7.0 mph11.3 kmh 29.91 in1012.9 mb 0.00 in0.0 mm 0.00 in/hr0.0 mm/hr 0.00 in0.0 mm
06:30 PM 30.3°F-0.9°C 2.6°F-16.3°C 30% 3.0 mph SW4.8 kmh SW 7.0 mph11.3 kmh 29.91 in1012.9 mb 0.00 in0.0 mm 0.00 in/hr0.0 mm/hr 0.00 in0.0 mm
06:35 PM 30.3°F-0.9°C 2.6°F-16.3°C 30% 2.0 mph SW3.2 kmh SW 10.0 mph16.1 kmh 29.91 in1012.9 mb 0.00 in0.0 mm 0.00 in/hr0.0 mm/hr 0.00 in0.0 mm
06:40 PM 30.1°F-1.1°C 2.4°F-16.4°C 30% 9.0 mph SW14.5 kmh SW 10.0 mph16.1 kmh 29.91 in1012.9 mb 0.00 in0.0 mm 0.00 in/hr0.0 mm/hr 0.00 in0.0 mm
06:45 PM 30.1°F-1.1°C 3.1°F-16.1°C 31% 2.0 mph SW3.2 kmh SW 7.0 mph11.3 kmh 29.91 in1012.9 mb 0.00 in0.0 mm 0.00 in/hr0.0 mm/hr 0.00 in0.0 mm
06:50 PM 30.0°F-1.1°C 3.0°F-16.1°C 31% Calm Calm 5.0 mph8.0 kmh 29.91 in1012.9 mb 0.00 in0.0 mm 0.00 in/hr0.0 mm/hr 0.00 in0.0 mm
06:55 PM 30.0°F-1.1°C 3.0°F-16.1°C 31% 3.0 mph SW4.8 kmh SW 7.0 mph11.3 kmh 29.91 in1012.9 mb 0.00 in0.0 mm 0.00 in/hr0.0 mm/hr 0.00 in0.0 mm
07:00 PM 30.0°F-1.1°C 3.7°F-15.7°C 32% Calm Calm 7.0 mph11.3 kmh 29.92 in1013.2 mb 0.00 in0.0 mm 0.00 in/hr0.0 mm/hr 0.00 in0.0 mm
07:05 PM 30.0°F-1.1°C 3.7°F-15.7°C 32% Calm Calm 5.0 mph8.0 kmh 29.92 in1013.2 mb 0.00 in0.0 mm 0.00 in/hr0.0 mm/hr 0.00 in0.0 mm
07:10 PM 29.8°F-1.2°C 3.5°F-15.8°C 32% 1.0 mph SSW1.6 kmh SSW 4.0 mph6.4 kmh 29.92 in1013.2 mb 0.00 in0.0 mm 0.00 in/hr0.0 mm/hr 0.00 in0.0 mm
07:15 PM 29.8°F-1.2°C 4.2°F-15.4°C 33% 2.0 mph SSW3.2 kmh SSW 4.0 mph6.4 kmh 29.92 in1013.2 mb 0.00 in0.0 mm 0.00 in/hr0.0 mm/hr 0.00 in0.0 mm
07:20 PM 29.8°F-1.2°C 4.2°F-15.4°C 33% Calm Calm 4.0 mph6.4 kmh 29.92 in1013.2 mb 0.00 in0.0 mm 0.00 in/hr0.0 mm/hr 0.00 in0.0 mm
07:25 PM 29.8°F-1.2°C 3.5°F-15.8°C 32% Calm Calm 5.0 mph8.0 kmh 29.92 in1013.2 mb 0.00 in0.0 mm 0.00 in/hr0.0 mm/hr 0.00 in0.0 mm
07:30 PM 29.8°F-1.2°C 3.5°F-15.8°C 32% 4.0 mph SSW6.4 kmh SSW 6.0 mph9.7 kmh 29.93 in1013.5 mb 0.00 in0.0 mm 0.00 in/hr0.0 mm/hr 0.00 in0.0 mm
07:35 PM 29.8°F-1.2°C 4.2°F-15.4°C 33% 2.0 mph SSW3.2 kmh SSW 6.0 mph9.7 kmh 29.93 in1013.5 mb 0.00 in0.0 mm 0.00 in/hr0.0 mm/hr 0.00 in0.0 mm
07:40 PM 29.7°F-1.3°C 4.1°F-15.5°C 33% 5.0 mph SSW8.0 kmh SSW 8.0 mph12.9 kmh 29.93 in1013.5 mb 0.00 in0.0 mm 0.00 in/hr0.0 mm/hr 0.00 in0.0 mm
07:45 PM 29.7°F-1.3°C 4.1°F-15.5°C 33% 2.0 mph SW3.2 kmh SW 7.0 mph11.3 kmh 29.93 in1013.5 mb 0.00 in0.0 mm 0.00 in/hr0.0 mm/hr 0.00 in0.0 mm
07:50 PM 29.5°F-1.4°C 3.9°F-15.6°C 33% 1.0 mph SW1.6 kmh SW 7.0 mph11.3 kmh 29.93 in1013.5 mb 0.00 in0.0 mm 0.00 in/hr0.0 mm/hr 0.00 in0.0 mm
07:55 PM 29.5°F-1.4°C 3.9°F-15.6°C 33% 5.0 mph SW8.0 kmh SW 9.0 mph14.5 kmh 29.93 in1013.5 mb 0.00 in0.0 mm 0.00 in/hr0.0 mm/hr 0.00 in0.0 mm
08:00 PM 29.4°F-1.4°C 4.5°F-15.3°C 34% 3.0 mph SW4.8 kmh SW 7.0 mph11.3 kmh 29.94 in1013.9 mb 0.00 in0.0 mm 0.00 in/hr0.0 mm/hr 0.00 in0.0 mm
08:05 PM 29.3°F-1.5°C 4.4°F-15.3°C 34% 1.0 mph SW1.6 kmh SW 6.0 mph9.7 kmh 29.94 in1013.9 mb 0.00 in0.0 mm 0.00 in/hr0.0 mm/hr 0.00 in0.0 mm
08:10 PM 29.1°F-1.6°C 4.2°F-15.4°C 34% 5.0 mph SW8.0 kmh SW 6.0 mph9.7 kmh 29.94 in1013.9 mb 0.00 in0.0 mm 0.00 in/hr0.0 mm/hr 0.00 in0.0 mm
08:15 PM 29.1°F-1.6°C 4.2°F-15.4°C 34% Calm Calm 7.0 mph11.3 kmh 29.94 in1013.9 mb 0.00 in0.0 mm 0.00 in/hr0.0 mm/hr 0.00 in0.0 mm
08:20 PM 29.0°F-1.7°C 4.8°F-15.1°C 35% 3.0 mph SW4.8 kmh SW 7.0 mph11.3 kmh 29.94 in1013.9 mb 0.00 in0.0 mm 0.00 in/hr0.0 mm/hr 0.00 in0.0 mm
08:25 PM 29.0°F-1.7°C 4.8°F-15.1°C 35% Calm Calm 8.0 mph12.9 kmh 29.94 in1013.9 mb 0.00 in0.0 mm 0.00 in/hr0.0 mm/hr 0.00 in0.0 mm
08:30 PM 29.0°F-1.7°C 4.8°F-15.1°C 35% 2.0 mph SW3.2 kmh SW 9.0 mph14.5 kmh 29.94 in1013.9 mb 0.00 in0.0 mm 0.00 in/hr0.0 mm/hr 0.00 in0.0 mm
08:35 PM 29.0°F-1.7°C 4.8°F-15.1°C 35% 6.0 mph SW9.7 kmh SW 6.0 mph9.7 kmh 29.94 in1013.9 mb 0.00 in0.0 mm 0.00 in/hr0.0 mm/hr 0.00 in0.0 mm
08:40 PM 29.0°F-1.7°C 4.8°F-15.1°C 35% 4.0 mph SW6.4 kmh SW 10.0 mph16.1 kmh 29.94 in1013.9 mb 0.00 in0.0 mm 0.00 in/hr0.0 mm/hr 0.00 in0.0 mm
08:45 PM 29.0°F-1.7°C 5.4°F-14.8°C 36% Calm Calm 5.0 mph8.0 kmh 29.94 in1013.9 mb 0.00 in0.0 mm 0.00 in/hr0.0 mm/hr 0.00 in0.0 mm
08:50 PM 29.0°F-1.7°C 6.0°F-14.4°C 37% 4.0 mph SW6.4 kmh SW 5.0 mph8.0 kmh 29.94 in1013.9 mb 0.00 in0.0 mm 0.00 in/hr0.0 mm/hr 0.00 in0.0 mm
08:55 PM 29.0°F-1.7°C 5.4°F-14.8°C 36% 3.0 mph SW4.8 kmh SW 7.0 mph11.3 kmh 29.94 in1013.9 mb 0.00 in0.0 mm 0.00 in/hr0.0 mm/hr 0.00 in0.0 mm
09:00 PM 29.1°F-1.6°C 6.1°F-14.4°C 37% Calm Calm 4.0 mph6.4 kmh 29.95 in1014.2 mb 0.00 in0.0 mm 0.00 in/hr0.0 mm/hr 0.00 in0.0 mm
09:05 PM 29.1°F-1.6°C 6.6°F-14.1°C 38% Calm Calm 2.0 mph3.2 kmh 29.95 in1014.2 mb 0.00 in0.0 mm 0.00 in/hr0.0 mm/hr 0.00 in0.0 mm
09:10 PM 29.0°F-1.7°C 6.6°F-14.1°C 38% Calm Calm 4.0 mph6.4 kmh 29.95 in1014.2 mb 0.00 in0.0 mm 0.00 in/hr0.0 mm/hr 0.00 in0.0 mm
09:15 PM 29.0°F-1.7°C 6.6°F-14.1°C 38% Calm Calm 6.0 mph9.7 kmh 29.95 in1014.2 mb 0.00 in0.0 mm 0.00 in/hr0.0 mm/hr 0.00 in0.0 mm
09:20 PM 29.0°F-1.7°C 6.6°F-14.1°C 38% 3.0 mph SSE4.8 kmh SSE 6.0 mph9.7 kmh 29.95 in1014.2 mb 0.00 in0.0 mm 0.00 in/hr0.0 mm/hr 0.00 in0.0 mm
09:25 PM 29.0°F-1.7°C 6.0°F-14.4°C 37% 2.0 mph SW3.2 kmh SW 9.0 mph14.5 kmh 29.95 in1014.2 mb 0.00 in0.0 mm 0.00 in/hr0.0 mm/hr 0.00 in0.0 mm
09:30 PM 29.0°F-1.7°C 6.6°F-14.1°C 38% Calm Calm 4.0 mph6.4 kmh 29.96 in1014.6 mb 0.00 in0.0 mm 0.00 in/hr0.0 mm/hr 0.00 in0.0 mm
09:35 PM 29.0°F-1.7°C 6.6°F-14.1°C 38% 3.0 mph SW4.8 kmh SW 5.0 mph8.0 kmh 29.96 in1014.6 mb 0.00 in0.0 mm 0.00 in/hr0.0 mm/hr 0.00 in0.0 mm
09:40 PM 29.0°F-1.7°C 6.0°F-14.4°C 37% 3.0 mph SSW4.8 kmh SSW 7.0 mph11.3 kmh 29.96 in1014.6 mb 0.00 in0.0 mm 0.00 in/hr0.0 mm/hr 0.00 in0.0 mm
09:45 PM 29.0°F-1.7°C 6.6°F-14.1°C 38% Calm Calm 6.0 mph9.7 kmh 29.97 in1014.9 mb 0.00 in0.0 mm 0.00 in/hr0.0 mm/hr 0.00 in0.0 mm
09:50 PM 29.1°F-1.6°C 6.6°F-14.1°C 38% 5.0 mph SSW8.0 kmh SSW 5.0 mph8.0 kmh 29.97 in1014.9 mb 0.00 in0.0 mm 0.00 in/hr0.0 mm/hr 0.00 in0.0 mm
09:55 PM 29.1°F-1.6°C 7.2°F-13.8°C 39% Calm Calm 6.0 mph9.7 kmh 29.97 in1014.9 mb 0.00 in0.0 mm 0.00 in/hr0.0 mm/hr 0.00 in0.0 mm
10:00 PM 29.1°F-1.6°C 9.4°F-12.6°C 43% 3.0 mph SSW4.8 kmh SSW 3.0 mph4.8 kmh 29.97 in1014.9 mb 0.00 in0.0 mm 0.00 in/hr0.0 mm/hr 0.00 in0.0 mm
10:05 PM 29.0°F-1.7°C 6.6°F-14.1°C 38% 2.0 mph SSW3.2 kmh SSW 6.0 mph9.7 kmh 29.97 in1014.9 mb 0.00 in0.0 mm 0.00 in/hr0.0 mm/hr 0.00 in0.0 mm
10:10 PM 29.0°F-1.7°C 6.6°F-14.1°C 38% Calm Calm 7.0 mph11.3 kmh 29.97 in1014.9 mb 0.00 in0.0 mm 0.00 in/hr0.0 mm/hr 0.00 in0.0 mm
10:15 PM 28.8°F-1.8°C 6.9°F-13.9°C 39% 1.0 mph SSW1.6 kmh SSW 7.0 mph11.3 kmh 29.97 in1014.9 mb 0.00 in0.0 mm 0.00 in/hr0.0 mm/hr 0.00 in0.0 mm
10:20 PM 28.8°F-1.8°C 6.9°F-13.9°C 39% 6.0 mph SW9.7 kmh SW 8.0 mph12.9 kmh 29.97 in1014.9 mb 0.00 in0.0 mm 0.00 in/hr0.0 mm/hr 0.00 in0.0 mm
10:30 PM 28.7°F-1.8°C 6.9°F-13.9°C 39% 1.0 mph SSW1.6 kmh SSW 7.0 mph11.3 kmh 29.98 in1015.2 mb 0.00 in0.0 mm 0.00 in/hr0.0 mm/hr 0.00 in0.0 mm
10:35 PM 28.7°F-1.8°C 6.9°F-13.9°C 39% 2.0 mph SW3.2 kmh SW 8.0 mph12.9 kmh 29.98 in1015.2 mb 0.00 in0.0 mm 0.00 in/hr0.0 mm/hr 0.00 in0.0 mm
10:40 PM 28.5°F-1.9°C 7.2°F-13.8°C 40% 5.0 mph SW8.0 kmh SW 5.0 mph8.0 kmh 29.98 in1015.2 mb 0.00 in0.0 mm 0.00 in/hr0.0 mm/hr 0.00 in0.0 mm
10:45 PM 28.5°F-1.9°C 6.7°F-14.1°C 39% 2.0 mph SSW3.2 kmh SSW 10.0 mph16.1 kmh 29.98 in1015.2 mb 0.00 in0.0 mm 0.00 in/hr0.0 mm/hr 0.00 in0.0 mm
10:50 PM 28.7°F-1.8°C 7.4°F-13.7°C 40% 2.0 mph SSW3.2 kmh SSW 4.0 mph6.4 kmh 29.98 in1015.2 mb 0.00 in0.0 mm 0.00 in/hr0.0 mm/hr 0.00 in0.0 mm
10:55 PM 28.8°F-1.8°C 8.1°F-13.3°C 41% Calm Calm 3.0 mph4.8 kmh 29.98 in1015.2 mb 0.00 in0.0 mm 0.00 in/hr0.0 mm/hr 0.00 in0.0 mm
11:00 PM 29.0°F-1.7°C 7.7°F-13.5°C 40% Calm Calm 6.0 mph9.7 kmh 29.98 in1015.2 mb 0.00 in0.0 mm 0.00 in/hr0.0 mm/hr 0.00 in0.0 mm
11:05 PM 29.0°F-1.7°C 7.7°F-13.5°C 40% 3.0 mph SSW4.8 kmh SSW 7.0 mph11.3 kmh 29.98 in1015.2 mb 0.00 in0.0 mm 0.00 in/hr0.0 mm/hr 0.00 in0.0 mm
11:10 PM 29.1°F-1.6°C 8.3°F-13.2°C 41% Calm Calm 6.0 mph9.7 kmh 29.98 in1015.2 mb 0.00 in0.0 mm 0.00 in/hr0.0 mm/hr 0.00 in0.0 mm
11:15 PM 29.3°F-1.5°C 8.5°F-13.1°C 41% Calm Calm 5.0 mph8.0 kmh 29.98 in1015.2 mb 0.00 in0.0 mm 0.00 in/hr0.0 mm/hr 0.00 in0.0 mm
11:20 PM 29.3°F-1.5°C 8.0°F-13.3°C 40% Calm Calm 4.0 mph6.4 kmh 29.98 in1015.2 mb 0.00 in0.0 mm 0.00 in/hr0.0 mm/hr 0.00 in0.0 mm
11:25 PM 29.3°F-1.5°C 8.0°F-13.3°C 40% Calm Calm 6.0 mph9.7 kmh 29.98 in1015.2 mb 0.00 in0.0 mm 0.00 in/hr0.0 mm/hr 0.00 in0.0 mm
11:30 PM 29.3°F-1.5°C 8.5°F-13.1°C 41% 2.0 mph SW3.2 kmh SW 6.0 mph9.7 kmh 29.98 in1015.2 mb 0.00 in0.0 mm 0.00 in/hr0.0 mm/hr 0.00 in0.0 mm
11:35 PM 29.3°F-1.5°C 8.0°F-13.3°C 40% Calm Calm 10.0 mph16.1 kmh 29.98 in1015.2 mb 0.00 in0.0 mm 0.00 in/hr0.0 mm/hr 0.00 in0.0 mm
11:40 PM 29.3°F-1.5°C 8.5°F-13.1°C 41% 3.0 mph SSW4.8 kmh SSW 5.0 mph8.0 kmh 29.98 in1015.2 mb 0.00 in0.0 mm 0.00 in/hr0.0 mm/hr 0.00 in0.0 mm
11:45 PM 29.3°F-1.5°C 8.0°F-13.3°C 40% 4.0 mph SSW6.4 kmh SSW 9.0 mph14.5 kmh 29.98 in1015.2 mb 0.00 in0.0 mm 0.00 in/hr0.0 mm/hr 0.00 in0.0 mm
11:50 PM 29.3°F-1.5°C 8.5°F-13.1°C 41% 3.0 mph SW4.8 kmh SW 11.0 mph17.7 kmh 29.98 in1015.2 mb 0.00 in0.0 mm 0.00 in/hr0.0 mm/hr 0.00 in0.0 mm
11:55 PM 29.3°F-1.5°C 8.5°F-13.1°C 41% 5.0 mph SW8.0 kmh SW 7.0 mph11.3 kmh 29.98 in1015.2 mb 0.00 in0.0 mm 0.00 in/hr0.0 mm/hr 0.00 in0.0 mm